sensor_id;sensor_type;location;lat;lon;timestamp;temperature;humidity
30648;DHT22;17683;53.360;9.736;2022-09-19T00:00:43;9.20;99.90
30648;DHT22;17683;53.360;9.736;2022-09-19T00:03:09;9.10;99.90
30648;DHT22;17683;53.360;9.736;2022-09-19T00:05:39;9.10;99.90
30648;DHT22;17683;53.360;9.736;2022-09-19T00:08:05;9.10;99.90
30648;DHT22;17683;53.360;9.736;2022-09-19T00:10:39;9.10;99.90
30648;DHT22;17683;53.360;9.736;2022-09-19T00:13:06;9.10;99.90
30648;DHT22;17683;53.360;9.736;2022-09-19T00:15:35;9.00;99.90
30648;DHT22;17683;53.360;9.736;2022-09-19T00:18:01;9.00;99.90
30648;DHT22;17683;53.360;9.736;2022-09-19T00:20:27;8.90;99.90
30648;DHT22;17683;53.360;9.736;2022-09-19T00:22:52;8.90;99.90
30648;DHT22;17683;53.360;9.736;2022-09-19T00:25:41;8.80;99.90
30648;DHT22;17683;53.360;9.736;2022-09-19T00:28:07;8.80;99.90
30648;DHT22;17683;53.360;9.736;2022-09-19T00:30:37;8.80;99.90
30648;DHT22;17683;53.360;9.736;2022-09-19T00:33:03;8.70;99.90
30648;DHT22;17683;53.360;9.736;2022-09-19T00:35:30;8.80;99.90
30648;DHT22;17683;53.360;9.736;2022-09-19T00:37:58;8.70;99.90
30648;DHT22;17683;53.360;9.736;2022-09-19T00:40:24;8.60;99.90
30648;DHT22;17683;53.360;9.736;2022-09-19T00:42:49;8.60;99.90
30648;DHT22;17683;53.360;9.736;2022-09-19T00:45:16;8.60;99.90
30648;DHT22;17683;53.360;9.736;2022-09-19T00:47:47;8.50;99.90
30648;DHT22;17683;53.360;9.736;2022-09-19T00:50:22;8.50;99.90
30648;DHT22;17683;53.360;9.736;2022-09-19T00:52:53;8.50;99.90
30648;DHT22;17683;53.360;9.736;2022-09-19T00:55:19;8.50;99.90
30648;DHT22;17683;53.360;9.736;2022-09-19T01:00:21;8.40;99.90
30648;DHT22;17683;53.360;9.736;2022-09-19T01:02:47;8.40;99.90
30648;DHT22;17683;53.360;9.736;2022-09-19T01:05:15;8.30;99.90
30648;DHT22;17683;53.360;9.736;2022-09-19T01:08:04;8.30;99.90
30648;DHT22;17683;53.360;9.736;2022-09-19T01:11:00;8.30;99.90
30648;DHT22;17683;53.360;9.736;2022-09-19T01:13:37;8.20;99.90
30648;DHT22;17683;53.360;9.736;2022-09-19T01:16:05;8.20;99.90
30648;DHT22;17683;53.360;9.736;2022-09-19T01:19:28;8.20;99.90
30648;DHT22;17683;53.360;9.736;2022-09-19T01:28:00;8.10;99.90
30648;DHT22;17683;53.360;9.736;2022-09-19T01:30:30;8.10;99.90
30648;DHT22;17683;53.360;9.736;2022-09-19T01:33:16;8.00;99.90
30648;DHT22;17683;53.360;9.736;2022-09-19T01:35:48;8.00;99.90
30648;DHT22;17683;53.360;9.736;2022-09-19T01:38:27;8.00;99.90
30648;DHT22;17683;53.360;9.736;2022-09-19T01:40:55;8.00;99.90
30648;DHT22;17683;53.360;9.736;2022-09-19T01:43:21;8.00;99.90
30648;DHT22;17683;53.360;9.736;2022-09-19T01:45:47;7.90;99.90
30648;DHT22;17683;53.360;9.736;2022-09-19T01:48:26;7.90;99.90
30648;DHT22;17683;53.360;9.736;2022-09-19T01:53:57;7.80;99.90
30648;DHT22;17683;53.360;9.736;2022-09-19T01:56:40;7.80;99.90
30648;DHT22;17683;53.360;9.736;2022-09-19T02:02:14;7.80;99.90
30648;DHT22;17683;53.360;9.736;2022-09-19T02:05:11;7.80;99.90
30648;DHT22;17683;53.360;9.736;2022-09-19T02:10:43;7.70;99.90
30648;DHT22;17683;53.360;9.736;2022-09-19T02:13:11;7.70;99.90
30648;DHT22;17683;53.360;9.736;2022-09-19T02:15:40;7.60;99.90
30648;DHT22;17683;53.360;9.736;2022-09-19T02:18:15;7.60;99.90
30648;DHT22;17683;53.360;9.736;2022-09-19T02:20:54;7.60;99.90
30648;DHT22;17683;53.360;9.736;2022-09-19T02:23:44;7.60;99.90
30648;DHT22;17683;53.360;9.736;2022-09-19T02:26:14;7.60;99.90
30648;DHT22;17683;53.360;9.736;2022-09-19T02:28:43;7.60;99.90
30648;DHT22;17683;53.360;9.736;2022-09-19T02:31:09;7.50;99.90
30648;DHT22;17683;53.360;9.736;2022-09-19T02:33:38;7.50;99.90
30648;DHT22;17683;53.360;9.736;2022-09-19T02:36:08;7.50;99.90
30648;DHT22;17683;53.360;9.736;2022-09-19T02:41:33;7.50;99.90
30648;DHT22;17683;53.360;9.736;2022-09-19T02:46:33;7.50;99.90
30648;DHT22;17683;53.360;9.736;2022-09-19T02:49:18;7.40;99.90
30648;DHT22;17683;53.360;9.736;2022-09-19T02:51:50;7.40;99.90
30648;DHT22;17683;53.360;9.736;2022-09-19T02:54:24;7.40;99.90
30648;DHT22;17683;53.360;9.736;2022-09-19T02:56:52;7.40;99.90
30648;DHT22;17683;53.360;9.736;2022-09-19T02:59:21;7.40;99.90
30648;DHT22;17683;53.360;9.736;2022-09-19T03:01:56;7.40;99.90
30648;DHT22;17683;53.360;9.736;2022-09-19T03:04:28;7.30;99.90
30648;DHT22;17683;53.360;9.736;2022-09-19T03:07:22;7.30;99.90
30648;DHT22;17683;53.360;9.736;2022-09-19T03:10:09;7.30;99.90
30648;DHT22;17683;53.360;9.736;2022-09-19T03:12:56;7.30;99.90
30648;DHT22;17683;53.360;9.736;2022-09-19T03:15:52;7.20;99.90
30648;DHT22;17683;53.360;9.736;2022-09-19T03:18:23;7.20;99.90
30648;DHT22;17683;53.360;9.736;2022-09-19T03:20:54;7.10;99.90
30648;DHT22;17683;53.360;9.736;2022-09-19T03:23:25;7.10;99.90
30648;DHT22;17683;53.360;9.736;2022-09-19T03:25:53;7.10;99.90
30648;DHT22;17683;53.360;9.736;2022-09-19T03:28:19;7.10;99.90
30648;DHT22;17683;53.360;9.736;2022-09-19T03:30:47;7.00;99.90
30648;DHT22;17683;53.360;9.736;2022-09-19T03:33:13;7.00;99.90
30648;DHT22;17683;53.360;9.736;2022-09-19T03:35:42;7.00;99.90
30648;DHT22;17683;53.360;9.736;2022-09-19T03:38:09;7.00;99.90
30648;DHT22;17683;53.360;9.736;2022-09-19T03:40:35;7.00;99.90
30648;DHT22;17683;53.360;9.736;2022-09-19T03:43:03;6.90;99.90
30648;DHT22;17683;53.360;9.736;2022-09-19T03:45:30;6.90;99.90
30648;DHT22;17683;53.360;9.736;2022-09-19T03:47:55;6.90;99.90
30648;DHT22;17683;53.360;9.736;2022-09-19T03:50:22;6.90;99.90
30648;DHT22;17683;53.360;9.736;2022-09-19T03:52:49;6.90;99.90
30648;DHT22;17683;53.360;9.736;2022-09-19T03:55:15;6.90;99.90
30648;DHT22;17683;53.360;9.736;2022-09-19T03:57:41;6.90;99.90
30648;DHT22;17683;53.360;9.736;2022-09-19T04:00:08;6.80;99.90
30648;DHT22;17683;53.360;9.736;2022-09-19T04:02:34;6.90;99.90
30648;DHT22;17683;53.360;9.736;2022-09-19T04:05:01;6.90;99.90
30648;DHT22;17683;53.360;9.736;2022-09-19T04:07:28;6.80;99.90
30648;DHT22;17683;53.360;9.736;2022-09-19T04:09:54;6.90;99.90
30648;DHT22;17683;53.360;9.736;2022-09-19T04:12:23;6.80;99.90
30648;DHT22;17683;53.360;9.736;2022-09-19T04:14:49;6.80;99.90
30648;DHT22;17683;53.360;9.736;2022-09-19T04:17:15;6.80;99.90
30648;DHT22;17683;53.360;9.736;2022-09-19T04:19:41;6.80;99.90
30648;DHT22;17683;53.360;9.736;2022-09-19T04:22:10;6.80;99.90
30648;DHT22;17683;53.360;9.736;2022-09-19T04:24:37;6.80;99.90
30648;DHT22;17683;53.360;9.736;2022-09-19T04:27:08;6.80;99.90
30648;DHT22;17683;53.360;9.736;2022-09-19T04:29:38;6.80;99.90
30648;DHT22;17683;53.360;9.736;2022-09-19T04:32:06;6.80;99.90
30648;DHT22;17683;53.360;9.736;2022-09-19T04:34:32;6.80;99.90
30648;DHT22;17683;53.360;9.736;2022-09-19T04:36:59;6.80;99.90
30648;DHT22;17683;53.360;9.736;2022-09-19T04:39:32;6.80;99.90
30648;DHT22;17683;53.360;9.736;2022-09-19T04:41:58;6.70;99.90
30648;DHT22;17683;53.360;9.736;2022-09-19T04:44:26;6.70;99.90
30648;DHT22;17683;53.360;9.736;2022-09-19T04:46:53;6.70;99.90
30648;DHT22;17683;53.360;9.736;2022-09-19T04:49:19;6.70;99.90
30648;DHT22;17683;53.360;9.736;2022-09-19T04:51:45;6.70;99.90
30648;DHT22;17683;53.360;9.736;2022-09-19T04:54:12;6.70;99.90
30648;DHT22;17683;53.360;9.736;2022-09-19T04:56:39;6.70;99.90
30648;DHT22;17683;53.360;9.736;2022-09-19T04:59:10;6.80;99.90
30648;DHT22;17683;53.360;9.736;2022-09-19T05:01:36;6.80;99.90
30648;DHT22;17683;53.360;9.736;2022-09-19T05:04:03;6.80;99.90
30648;DHT22;17683;53.360;9.736;2022-09-19T05:06:30;6.90;99.90
30648;DHT22;17683;53.360;9.736;2022-09-19T05:08:56;6.90;99.90
30648;DHT22;17683;53.360;9.736;2022-09-19T05:11:24;7.00;99.90
30648;DHT22;17683;53.360;9.736;2022-09-19T05:13:49;6.90;99.90
30648;DHT22;17683;53.360;9.736;2022-09-19T05:16:18;7.00;99.90
30648;DHT22;17683;53.360;9.736;2022-09-19T05:18:44;7.00;99.90
30648;DHT22;17683;53.360;9.736;2022-09-19T05:21:13;7.10;99.90
30648;DHT22;17683;53.360;9.736;2022-09-19T05:23:40;7.10;99.90
30648;DHT22;17683;53.360;9.736;2022-09-19T05:26:11;7.20;99.90
30648;DHT22;17683;53.360;9.736;2022-09-19T05:28:41;7.20;99.90
30648;DHT22;17683;53.360;9.736;2022-09-19T05:31:07;7.20;99.90
30648;DHT22;17683;53.360;9.736;2022-09-19T05:33:33;7.30;99.90
30648;DHT22;17683;53.360;9.736;2022-09-19T05:36:01;7.30;99.90
30648;DHT22;17683;53.360;9.736;2022-09-19T05:38:28;7.30;99.90
30648;DHT22;17683;53.360;9.736;2022-09-19T05:40:56;7.40;99.90
30648;DHT22;17683;53.360;9.736;2022-09-19T05:43:22;7.50;99.90
30648;DHT22;17683;53.360;9.736;2022-09-19T05:45:50;7.50;99.90
30648;DHT22;17683;53.360;9.736;2022-09-19T05:48:16;7.60;99.90
30648;DHT22;17683;53.360;9.736;2022-09-19T05:50:43;7.60;99.90
30648;DHT22;17683;53.360;9.736;2022-09-19T05:53:13;7.60;99.90
30648;DHT22;17683;53.360;9.736;2022-09-19T05:55:58;7.70;99.90
30648;DHT22;17683;53.360;9.736;2022-09-19T05:58:25;7.70;99.90
30648;DHT22;17683;53.360;9.736;2022-09-19T06:00:51;7.70;99.90
30648;DHT22;17683;53.360;9.736;2022-09-19T06:03:18;7.70;99.90
30648;DHT22;17683;53.360;9.736;2022-09-19T06:05:47;7.80;99.90
30648;DHT22;17683;53.360;9.736;2022-09-19T06:08:18;7.80;99.90
30648;DHT22;17683;53.360;9.736;2022-09-19T06:10:45;7.80;99.90
30648;DHT22;17683;53.360;9.736;2022-09-19T06:13:20;7.80;99.90
30648;DHT22;17683;53.360;9.736;2022-09-19T06:15:47;7.90;99.90
30648;DHT22;17683;53.360;9.736;2022-09-19T06:18:13;7.90;99.90
30648;DHT22;17683;53.360;9.736;2022-09-19T06:20:40;7.90;99.90
30648;DHT22;17683;53.360;9.736;2022-09-19T06:23:08;8.00;99.90
30648;DHT22;17683;53.360;9.736;2022-09-19T06:25:35;8.00;99.90
30648;DHT22;17683;53.360;9.736;2022-09-19T06:28:03;8.10;99.90
30648;DHT22;17683;53.360;9.736;2022-09-19T06:30:30;8.10;99.90
30648;DHT22;17683;53.360;9.736;2022-09-19T06:32:56;8.10;99.90
30648;DHT22;17683;53.360;9.736;2022-09-19T06:35:24;8.20;99.90
30648;DHT22;17683;53.360;9.736;2022-09-19T06:38:00;8.20;99.90
30648;DHT22;17683;53.360;9.736;2022-09-19T06:40:27;8.20;99.90
30648;DHT22;17683;53.360;9.736;2022-09-19T06:43:00;8.30;99.90
30648;DHT22;17683;53.360;9.736;2022-09-19T06:45:28;8.40;99.90
30648;DHT22;17683;53.360;9.736;2022-09-19T06:47:58;8.50;99.90
30648;DHT22;17683;53.360;9.736;2022-09-19T06:50:25;8.60;99.90
30648;DHT22;17683;53.360;9.736;2022-09-19T06:52:51;8.70;99.90
30648;DHT22;17683;53.360;9.736;2022-09-19T06:55:17;8.90;99.90
30648;DHT22;17683;53.360;9.736;2022-09-19T06:57:43;9.00;99.90
30648;DHT22;17683;53.360;9.736;2022-09-19T07:00:10;9.10;99.90
30648;DHT22;17683;53.360;9.736;2022-09-19T07:02:36;9.30;99.90
30648;DHT22;17683;53.360;9.736;2022-09-19T07:05:01;9.50;99.90
30648;DHT22;17683;53.360;9.736;2022-09-19T07:07:27;9.70;99.90
30648;DHT22;17683;53.360;9.736;2022-09-19T07:09:53;9.80;99.90
30648;DHT22;17683;53.360;9.736;2022-09-19T07:12:18;9.90;99.90
30648;DHT22;17683;53.360;9.736;2022-09-19T07:14:44;10.00;99.90
30648;DHT22;17683;53.360;9.736;2022-09-19T07:17:10;10.10;99.90
30648;DHT22;17683;53.360;9.736;2022-09-19T07:19:41;10.30;99.90
30648;DHT22;17683;53.360;9.736;2022-09-19T07:22:07;10.40;99.90
30648;DHT22;17683;53.360;9.736;2022-09-19T07:24:32;10.40;99.90
30648;DHT22;17683;53.360;9.736;2022-09-19T07:26:58;10.60;99.90
30648;DHT22;17683;53.360;9.736;2022-09-19T07:29:24;10.70;99.90
30648;DHT22;17683;53.360;9.736;2022-09-19T07:31:49;10.90;99.90
30648;DHT22;17683;53.360;9.736;2022-09-19T07:34:15;11.00;99.90
30648;DHT22;17683;53.360;9.736;2022-09-19T07:36:41;11.10;99.90
30648;DHT22;17683;53.360;9.736;2022-09-19T07:39:06;11.30;99.90
30648;DHT22;17683;53.360;9.736;2022-09-19T07:41:32;11.50;99.90
30648;DHT22;17683;53.360;9.736;2022-09-19T07:43:58;11.60;99.90
30648;DHT22;17683;53.360;9.736;2022-09-19T07:46:24;11.70;99.90
30648;DHT22;17683;53.360;9.736;2022-09-19T07:48:50;11.90;99.90
30648;DHT22;17683;53.360;9.736;2022-09-19T07:51:19;12.00;99.90
30648;DHT22;17683;53.360;9.736;2022-09-19T07:53:46;12.10;99.90
30648;DHT22;17683;53.360;9.736;2022-09-19T07:56:11;12.20;99.90
30648;DHT22;17683;53.360;9.736;2022-09-19T07:58:37;12.20;99.90
30648;DHT22;17683;53.360;9.736;2022-09-19T08:01:03;12.30;99.90
30648;DHT22;17683;53.360;9.736;2022-09-19T08:03:30;12.30;99.90
30648;DHT22;17683;53.360;9.736;2022-09-19T08:05:58;12.30;99.90
30648;DHT22;17683;53.360;9.736;2022-09-19T08:08:24;12.30;99.90
30648;DHT22;17683;53.360;9.736;2022-09-19T08:10:50;12.50;99.90
30648;DHT22;17683;53.360;9.736;2022-09-19T08:13:18;12.60;99.90
30648;DHT22;17683;53.360;9.736;2022-09-19T08:15:45;12.70;99.90
30648;DHT22;17683;53.360;9.736;2022-09-19T08:18:16;12.90;99.90
30648;DHT22;17683;53.360;9.736;2022-09-19T08:20:43;12.90;99.90
30648;DHT22;17683;53.360;9.736;2022-09-19T08:23:14;13.10;99.90
30648;DHT22;17683;53.360;9.736;2022-09-19T08:25:41;13.10;99.90
30648;DHT22;17683;53.360;9.736;2022-09-19T08:28:12;13.20;99.90
30648;DHT22;17683;53.360;9.736;2022-09-19T08:30:38;13.30;99.90
30648;DHT22;17683;53.360;9.736;2022-09-19T08:33:04;13.40;99.90
30648;DHT22;17683;53.360;9.736;2022-09-19T08:35:32;13.50;99.90
30648;DHT22;17683;53.360;9.736;2022-09-19T08:38:04;13.60;99.90
30648;DHT22;17683;53.360;9.736;2022-09-19T08:46:32;13.90;99.90
30648;DHT22;17683;53.360;9.736;2022-09-19T08:54:18;14.10;99.90
30648;DHT22;17683;53.360;9.736;2022-09-19T08:56:45;14.20;99.90
30648;DHT22;17683;53.360;9.736;2022-09-19T08:59:14;14.30;99.90
30648;DHT22;17683;53.360;9.736;2022-09-19T09:01:40;14.40;99.90
30648;DHT22;17683;53.360;9.736;2022-09-19T09:04:26;14.40;99.90
30648;DHT22;17683;53.360;9.736;2022-09-19T09:09:51;14.70;99.90
30648;DHT22;17683;53.360;9.736;2022-09-19T09:18:32;14.90;99.90
30648;DHT22;17683;53.360;9.736;2022-09-19T09:21:14;15.00;99.90
30648;DHT22;17683;53.360;9.736;2022-09-19T09:23:43;15.10;99.90
30648;DHT22;17683;53.360;9.736;2022-09-19T09:26:15;15.10;99.90
30648;DHT22;17683;53.360;9.736;2022-09-19T09:29:04;15.20;99.90
30648;DHT22;17683;53.360;9.736;2022-09-19T09:31:38;15.30;99.90
30648;DHT22;17683;53.360;9.736;2022-09-19T09:34:06;15.40;99.90
30648;DHT22;17683;53.360;9.736;2022-09-19T09:39:49;15.60;99.90
30648;DHT22;17683;53.360;9.736;2022-09-19T09:42:35;15.80;99.90
30648;DHT22;17683;53.360;9.736;2022-09-19T09:53:22;16.10;99.90
30648;DHT22;17683;53.360;9.736;2022-09-19T09:56:27;16.00;99.90
30648;DHT22;17683;53.360;9.736;2022-09-19T10:01:49;15.80;99.90
30648;DHT22;17683;53.360;9.736;2022-09-19T10:10:19;14.90;99.90
30648;DHT22;17683;53.360;9.736;2022-09-19T10:15:38;14.40;99.90
30648;DHT22;17683;53.360;9.736;2022-09-19T10:18:13;14.20;99.90
30648;DHT22;17683;53.360;9.736;2022-09-19T10:20:58;14.10;99.90
30648;DHT22;17683;53.360;9.736;2022-09-19T10:23:26;14.00;99.90
30648;DHT22;17683;53.360;9.736;2022-09-19T10:25:58;14.00;99.90
30648;DHT22;17683;53.360;9.736;2022-09-19T10:28:35;13.90;99.90
30648;DHT22;17683;53.360;9.736;2022-09-19T10:31:03;13.80;99.90
30648;DHT22;17683;53.360;9.736;2022-09-19T10:33:45;13.80;99.90
30648;DHT22;17683;53.360;9.736;2022-09-19T10:36:21;13.90;99.90
30648;DHT22;17683;53.360;9.736;2022-09-19T10:38:51;13.80;99.90
30648;DHT22;17683;53.360;9.736;2022-09-19T10:41:20;13.90;99.90
30648;DHT22;17683;53.360;9.736;2022-09-19T10:43:59;13.80;99.90
30648;DHT22;17683;53.360;9.736;2022-09-19T10:46:31;13.80;99.90
30648;DHT22;17683;53.360;9.736;2022-09-19T10:49:03;13.80;99.90
30648;DHT22;17683;53.360;9.736;2022-09-19T10:51:40;13.70;99.90
30648;DHT22;17683;53.360;9.736;2022-09-19T10:54:12;13.70;99.90
30648;DHT22;17683;53.360;9.736;2022-09-19T10:56:46;13.60;99.90
30648;DHT22;17683;53.360;9.736;2022-09-19T11:01:39;13.50;99.90
30648;DHT22;17683;53.360;9.736;2022-09-19T11:06:56;13.50;99.90
30648;DHT22;17683;53.360;9.736;2022-09-19T11:09:32;13.70;99.90
30648;DHT22;17683;53.360;9.736;2022-09-19T11:12:15;13.90;99.90
30648;DHT22;17683;53.360;9.736;2022-09-19T11:14:43;14.20;99.90
30648;DHT22;17683;53.360;9.736;2022-09-19T11:25:52;15.70;99.90
30648;DHT22;17683;53.360;9.736;2022-09-19T11:37:04;17.20;99.90
30648;DHT22;17683;53.360;9.736;2022-09-19T11:42:50;17.50;99.90
30648;DHT22;17683;53.360;9.736;2022-09-19T11:45:20;17.50;99.90
30648;DHT22;17683;53.360;9.736;2022-09-19T11:55:58;16.70;99.90
30648;DHT22;17683;53.360;9.736;2022-09-19T12:01:36;16.20;99.90
30648;DHT22;17683;53.360;9.736;2022-09-19T12:10:06;15.70;99.90
30648;DHT22;17683;53.360;9.736;2022-09-19T12:12:37;15.60;99.90
30648;DHT22;17683;53.360;9.736;2022-09-19T12:17:41;15.60;99.90
30648;DHT22;17683;53.360;9.736;2022-09-19T12:20:30;15.60;99.90
30648;DHT22;17683;53.360;9.736;2022-09-19T12:26:08;15.70;99.90
30648;DHT22;17683;53.360;9.736;2022-09-19T12:28:42;15.70;99.90
30648;DHT22;17683;53.360;9.736;2022-09-19T12:31:14;15.70;99.90
30648;DHT22;17683;53.360;9.736;2022-09-19T12:36:26;15.70;99.90
30648;DHT22;17683;53.360;9.736;2022-09-19T12:39:06;15.80;99.90
30648;DHT22;17683;53.360;9.736;2022-09-19T12:41:40;15.80;99.90
30648;DHT22;17683;53.360;9.736;2022-09-19T12:47:35;15.70;99.90
30648;DHT22;17683;53.360;9.736;2022-09-19T12:52:44;16.00;99.90
30648;DHT22;17683;53.360;9.736;2022-09-19T12:55:20;16.00;99.90
30648;DHT22;17683;53.360;9.736;2022-09-19T12:57:59;16.20;99.90
30648;DHT22;17683;53.360;9.736;2022-09-19T13:00:27;16.30;99.90
30648;DHT22;17683;53.360;9.736;2022-09-19T13:05:54;16.40;99.90
30648;DHT22;17683;53.360;9.736;2022-09-19T13:08:31;16.30;99.90
30648;DHT22;17683;53.360;9.736;2022-09-19T13:13:47;16.10;99.90
30648;DHT22;17683;53.360;9.736;2022-09-19T13:16:19;16.00;99.90
30648;DHT22;17683;53.360;9.736;2022-09-19T13:18:50;15.80;99.90
30648;DHT22;17683;53.360;9.736;2022-09-19T13:21:40;15.70;99.90
30648;DHT22;17683;53.360;9.736;2022-09-19T13:27:08;15.30;99.90
30648;DHT22;17683;53.360;9.736;2022-09-19T13:32:02;15.10;99.90
30648;DHT22;17683;53.360;9.736;2022-09-19T13:34:42;15.00;99.90
30648;DHT22;17683;53.360;9.736;2022-09-19T13:42:52;14.90;99.90
30648;DHT22;17683;53.360;9.736;2022-09-19T13:53:41;14.90;99.90
30648;DHT22;17683;53.360;9.736;2022-09-19T13:56:38;14.90;99.90
30648;DHT22;17683;53.360;9.736;2022-09-19T14:04:45;14.70;99.90
30648;DHT22;17683;53.360;9.736;2022-09-19T14:10:26;14.80;99.90
30648;DHT22;17683;53.360;9.736;2022-09-19T14:14:00;14.90;99.90
30648;DHT22;17683;53.360;9.736;2022-09-19T14:18:38;15.10;99.90
30648;DHT22;17683;53.360;9.736;2022-09-19T14:21:07;15.20;99.90
30648;DHT22;17683;53.360;9.736;2022-09-19T14:23:57;15.30;99.90
30648;DHT22;17683;53.360;9.736;2022-09-19T14:26:44;15.30;99.90
30648;DHT22;17683;53.360;9.736;2022-09-19T14:29:36;15.40;99.90
30648;DHT22;17683;53.360;9.736;2022-09-19T14:35:38;15.50;99.90
30648;DHT22;17683;53.360;9.736;2022-09-19T14:38:22;15.50;99.90
30648;DHT22;17683;53.360;9.736;2022-09-19T14:41:13;15.60;99.90
30648;DHT22;17683;53.360;9.736;2022-09-19T14:46:52;15.60;99.90
30648;DHT22;17683;53.360;9.736;2022-09-19T14:49:37;15.50;99.90
30648;DHT22;17683;53.360;9.736;2022-09-19T14:52:11;15.60;99.90
30648;DHT22;17683;53.360;9.736;2022-09-19T14:55:00;15.70;99.90
30648;DHT22;17683;53.360;9.736;2022-09-19T14:57:26;15.70;99.90
30648;DHT22;17683;53.360;9.736;2022-09-19T14:59:52;15.80;99.90
30648;DHT22;17683;53.360;9.736;2022-09-19T15:02:29;15.80;99.90
30648;DHT22;17683;53.360;9.736;2022-09-19T15:05:02;15.80;99.90
30648;DHT22;17683;53.360;9.736;2022-09-19T15:07:33;15.80;99.90
30648;DHT22;17683;53.360;9.736;2022-09-19T15:13:20;15.80;99.90
30648;DHT22;17683;53.360;9.736;2022-09-19T15:15:53;15.80;99.90
30648;DHT22;17683;53.360;9.736;2022-09-19T15:18:23;15.80;99.90
30648;DHT22;17683;53.360;9.736;2022-09-19T15:20:54;15.90;99.90
30648;DHT22;17683;53.360;9.736;2022-09-19T15:23:22;15.90;99.90
30648;DHT22;17683;53.360;9.736;2022-09-19T15:25:55;16.00;99.90
30648;DHT22;17683;53.360;9.736;2022-09-19T15:28:27;15.90;99.90
30648;DHT22;17683;53.360;9.736;2022-09-19T15:30:55;15.80;99.90
30648;DHT22;17683;53.360;9.736;2022-09-19T15:33:25;15.70;99.90
30648;DHT22;17683;53.360;9.736;2022-09-19T15:35:52;15.60;99.90
30648;DHT22;17683;53.360;9.736;2022-09-19T15:38:34;15.40;99.90
30648;DHT22;17683;53.360;9.736;2022-09-19T15:41:05;15.30;99.90
30648;DHT22;17683;53.360;9.736;2022-09-19T15:43:32;15.20;99.90
30648;DHT22;17683;53.360;9.736;2022-09-19T15:46:03;15.10;99.90
30648;DHT22;17683;53.360;9.736;2022-09-19T15:48:47;15.00;99.90
30648;DHT22;17683;53.360;9.736;2022-09-19T15:51:28;15.00;99.90
30648;DHT22;17683;53.360;9.736;2022-09-19T15:53:58;14.90;99.90
30648;DHT22;17683;53.360;9.736;2022-09-19T15:56:25;14.90;99.90
30648;DHT22;17683;53.360;9.736;2022-09-19T15:58:55;14.90;99.90
30648;DHT22;17683;53.360;9.736;2022-09-19T16:01:33;14.80;99.90
30648;DHT22;17683;53.360;9.736;2022-09-19T16:04:20;14.80;99.90
30648;DHT22;17683;53.360;9.736;2022-09-19T16:10:16;14.70;99.90
30648;DHT22;17683;53.360;9.736;2022-09-19T16:14:56;14.70;99.90
30648;DHT22;17683;53.360;9.736;2022-09-19T16:23:06;14.50;99.90
30648;DHT22;17683;53.360;9.736;2022-09-19T16:28:11;14.30;99.90
30648;DHT22;17683;53.360;9.736;2022-09-19T16:30:52;14.30;99.90
30648;DHT22;17683;53.360;9.736;2022-09-19T16:33:19;14.20;99.90
30648;DHT22;17683;53.360;9.736;2022-09-19T16:35:50;14.20;99.90
30648;DHT22;17683;53.360;9.736;2022-09-19T16:38:24;14.10;99.90
30648;DHT22;17683;53.360;9.736;2022-09-19T16:40:55;14.00;99.90
30648;DHT22;17683;53.360;9.736;2022-09-19T16:43:33;13.90;99.90
30648;DHT22;17683;53.360;9.736;2022-09-19T16:46:02;13.90;99.90
30648;DHT22;17683;53.360;9.736;2022-09-19T16:48:28;13.90;99.90
30648;DHT22;17683;53.360;9.736;2022-09-19T16:50:53;13.80;99.90
30648;DHT22;17683;53.360;9.736;2022-09-19T16:53:19;13.80;99.90
30648;DHT22;17683;53.360;9.736;2022-09-19T16:55:47;13.80;99.90
30648;DHT22;17683;53.360;9.736;2022-09-19T16:58:14;13.70;99.90
30648;DHT22;17683;53.360;9.736;2022-09-19T17:00:42;13.70;99.90
30648;DHT22;17683;53.360;9.736;2022-09-19T17:03:11;13.70;99.90
30648;DHT22;17683;53.360;9.736;2022-09-19T17:05:37;13.70;99.90
30648;DHT22;17683;53.360;9.736;2022-09-19T17:08:04;13.60;99.90
30648;DHT22;17683;53.360;9.736;2022-09-19T17:10:31;13.60;99.90
30648;DHT22;17683;53.360;9.736;2022-09-19T17:12:57;13.60;99.90
30648;DHT22;17683;53.360;9.736;2022-09-19T17:18:10;13.50;99.90
30648;DHT22;17683;53.360;9.736;2022-09-19T17:20:40;13.40;99.90
30648;DHT22;17683;53.360;9.736;2022-09-19T17:23:13;13.40;99.90
30648;DHT22;17683;53.360;9.736;2022-09-19T17:25:42;13.30;99.90
30648;DHT22;17683;53.360;9.736;2022-09-19T17:28:10;13.30;99.90
30648;DHT22;17683;53.360;9.736;2022-09-19T17:30:36;13.30;99.90
30648;DHT22;17683;53.360;9.736;2022-09-19T17:33:02;13.20;99.90
30648;DHT22;17683;53.360;9.736;2022-09-19T17:35:27;13.20;99.90
30648;DHT22;17683;53.360;9.736;2022-09-19T17:37:53;13.20;99.90
30648;DHT22;17683;53.360;9.736;2022-09-19T17:40:19;13.20;99.90
30648;DHT22;17683;53.360;9.736;2022-09-19T17:42:46;13.20;99.90
30648;DHT22;17683;53.360;9.736;2022-09-19T17:45:13;13.20;99.90
30648;DHT22;17683;53.360;9.736;2022-09-19T17:47:39;13.10;99.90
30648;DHT22;17683;53.360;9.736;2022-09-19T17:50:05;13.10;99.90
30648;DHT22;17683;53.360;9.736;2022-09-19T17:52:31;13.00;99.90
30648;DHT22;17683;53.360;9.736;2022-09-19T17:54:57;13.00;99.90
30648;DHT22;17683;53.360;9.736;2022-09-19T17:57:23;13.00;99.90
30648;DHT22;17683;53.360;9.736;2022-09-19T17:59:49;13.00;99.90
30648;DHT22;17683;53.360;9.736;2022-09-19T18:02:15;13.00;99.90
30648;DHT22;17683;53.360;9.736;2022-09-19T18:04:59;12.90;99.90
30648;DHT22;17683;53.360;9.736;2022-09-19T18:07:25;12.90;99.90
30648;DHT22;17683;53.360;9.736;2022-09-19T18:09:50;12.80;99.90
30648;DHT22;17683;53.360;9.736;2022-09-19T18:12:16;12.80;99.90
30648;DHT22;17683;53.360;9.736;2022-09-19T18:14:42;12.80;99.90
30648;DHT22;17683;53.360;9.736;2022-09-19T18:17:11;12.80;99.90
30648;DHT22;17683;53.360;9.736;2022-09-19T18:19:37;12.70;99.90
30648;DHT22;17683;53.360;9.736;2022-09-19T18:22:04;12.60;99.90
30648;DHT22;17683;53.360;9.736;2022-09-19T18:24:30;12.60;99.90
30648;DHT22;17683;53.360;9.736;2022-09-19T18:26:56;12.50;99.90
30648;DHT22;17683;53.360;9.736;2022-09-19T18:29:22;12.50;99.90
30648;DHT22;17683;53.360;9.736;2022-09-19T18:31:48;12.40;99.90
30648;DHT22;17683;53.360;9.736;2022-09-19T18:34:14;12.40;99.90
30648;DHT22;17683;53.360;9.736;2022-09-19T18:36:39;12.40;99.90
30648;DHT22;17683;53.360;9.736;2022-09-19T18:39:05;12.30;99.90
30648;DHT22;17683;53.360;9.736;2022-09-19T18:41:31;12.20;99.90
30648;DHT22;17683;53.360;9.736;2022-09-19T18:43:57;12.20;99.90
30648;DHT22;17683;53.360;9.736;2022-09-19T18:46:24;12.20;99.90
30648;DHT22;17683;53.360;9.736;2022-09-19T18:48:51;12.10;99.90
30648;DHT22;17683;53.360;9.736;2022-09-19T18:51:21;12.10;99.90
30648;DHT22;17683;53.360;9.736;2022-09-19T18:53:50;12.00;99.90
30648;DHT22;17683;53.360;9.736;2022-09-19T18:56:17;12.00;99.90
30648;DHT22;17683;53.360;9.736;2022-09-19T18:58:43;11.90;99.90
30648;DHT22;17683;53.360;9.736;2022-09-19T19:01:10;11.90;99.90
30648;DHT22;17683;53.360;9.736;2022-09-19T19:03:39;11.90;99.90
30648;DHT22;17683;53.360;9.736;2022-09-19T19:06:10;11.80;99.90